Portada
METAR-TAF:

METAR-TAF

Aeroports :

Aeroport Internacional d'Abu Dhabi

Abu Dhabi, Emirats Àrabs Units

latitud: 24-26N, longitud: 054-39E, altitud: 16 m

Observació

L'informe es va fer fa 1 hora i 39 minuts, a les 02:00 UTC
Vent calma
Temperatura 28°C
Humitat 66%
Pressió 1011 hPa
Visibilitat 10 km o més
Núvols disperses a una alçada de 3500 ft

METAR: OMAA 220200Z 00000KT 9999 SCT035 28/21 Q1011 NOSIG

Hora: 07:39 (03:39 UTC)

Pronòstic

L'informe es va fer fa 4 hores i 39 minuts, a les 23:00 UTC
Pronòstic vàlid del 22 a les 00 UTC al 23 a les 06 UTC
Vent 10 kt del Oest/Nord-Oest
Visibilitat: 8000 m
Evolucionant progressivament
l' 22 a les 22 UTC al 23 a les 00 UTC
Vent 2 kt amb direcció variable
Probabilitat 30%
l' 23 a les 02 UTC al 23 a les 05 UTC
Vent 5 kt del Est/Sud-Est
Visibilitat: 4000 m
calitja

TAF: OMAA 212300Z 2200/2306 30010KT 8000 NSC BECMG 2222/2300 VRB02KT PROB30 2302/2305 12005KT 4000 HZ

Observacions i pronòstics meteorològics de més de 4000 aeroports (METAR i TAF).

Les estacions disponibles són els punts grocs i vermells al mapa.

Posi el ratolí al punt desitjat per veure el nom de l'estació.

Feu clic per veure les observacions i els pronòstics meteorològics.

Per canviar el mapa: feu clic els botons verds amb una creu de color negre per apropar; al botó verd amb un guió per allunyar la imatge; o en les fletxes verdes per a mapes adjacents.


METAR-TAF: